sensor_id;sensor_type;location;lat;lon;timestamp;pressure;altitude;pressure_sealevel;temperature;humidity
76598;BME280;65486;53.144;18.134;2022-12-18T00:01:33;102606.75;;;-4.34;81.24
76598;BME280;65486;53.144;18.134;2022-12-18T00:04:03;102603.36;;;-4.35;81.20
76598;BME280;65486;53.144;18.134;2022-12-18T00:06:32;102600.98;;;-4.31;81.20
76598;BME280;65486;53.144;18.134;2022-12-18T00:09:00;102602.30;;;-4.25;81.09
76598;BME280;65486;53.144;18.134;2022-12-18T00:11:30;102607.71;;;-4.25;81.12
76598;BME280;65486;53.144;18.134;2022-12-18T00:14:03;102613.23;;;-4.25;81.13
76598;BME280;65486;53.144;18.134;2022-12-18T00:16:31;102621.95;;;-4.23;81.07
76598;BME280;65486;53.144;18.134;2022-12-18T00:19:00;102626.61;;;-4.23;81.08
76598;BME280;65486;53.144;18.134;2022-12-18T00:21:28;102624.15;;;-4.24;80.95
76598;BME280;65486;53.144;18.134;2022-12-18T00:23:55;102625.36;;;-4.23;81.11
76598;BME280;65486;53.144;18.134;2022-12-18T00:26:28;102630.86;;;-4.22;81.04
76598;BME280;65486;53.144;18.134;2022-12-18T00:29:03;102630.79;;;-4.20;81.09
76598;BME280;65486;53.144;18.134;2022-12-18T00:31:41;102635.85;;;-4.18;81.09
76598;BME280;65486;53.144;18.134;2022-12-18T00:34:12;102631.05;;;-4.15;80.87
76598;BME280;65486;53.144;18.134;2022-12-18T00:36:41;102642.71;;;-4.12;80.96
76598;BME280;65486;53.144;18.134;2022-12-18T00:39:10;102630.70;;;-4.16;81.21
76598;BME280;65486;53.144;18.134;2022-12-18T00:41:39;102648.16;;;-4.10;81.06
76598;BME280;65486;53.144;18.134;2022-12-18T00:44:26;102641.86;;;-4.13;81.14
76598;BME280;65486;53.144;18.134;2022-12-18T00:46:55;102652.23;;;-4.12;81.17
76598;BME280;65486;53.144;18.134;2022-12-18T00:49:26;102650.15;;;-4.10;81.25
76598;BME280;65486;53.144;18.134;2022-12-18T00:51:55;102648.51;;;-4.10;81.10
76598;BME280;65486;53.144;18.134;2022-12-18T00:54:25;102651.52;;;-4.09;81.02
76598;BME280;65486;53.144;18.134;2022-12-18T00:56:53;102660.56;;;-4.10;81.10
76598;BME280;65486;53.144;18.134;2022-12-18T00:59:23;102658.08;;;-4.10;81.00
76598;BME280;65486;53.144;18.134;2022-12-18T01:01:53;102661.02;;;-4.08;81.22
76598;BME280;65486;53.144;18.134;2022-12-18T01:04:20;102658.85;;;-4.08;81.06
76598;BME280;65486;53.144;18.134;2022-12-18T01:06:48;102667.98;;;-4.11;81.06
76598;BME280;65486;53.144;18.134;2022-12-18T01:09:15;102675.80;;;-4.13;81.11
76598;BME280;65486;53.144;18.134;2022-12-18T01:11:41;102676.59;;;-4.11;81.20
76598;BME280;65486;53.144;18.134;2022-12-18T01:14:12;102685.61;;;-4.08;81.29
76598;BME280;65486;53.144;18.134;2022-12-18T01:16:48;102681.65;;;-4.05;81.02
76598;BME280;65486;53.144;18.134;2022-12-18T01:19:22;102685.65;;;-4.02;80.94
76598;BME280;65486;53.144;18.134;2022-12-18T01:21:59;102688.64;;;-4.01;81.19
76598;BME280;65486;53.144;18.134;2022-12-18T01:24:33;102685.23;;;-4.01;81.10
76598;BME280;65486;53.144;18.134;2022-12-18T01:27:00;102691.23;;;-4.03;81.11
76598;BME280;65486;53.144;18.134;2022-12-18T01:29:28;102693.98;;;-4.04;81.13
76598;BME280;65486;53.144;18.134;2022-12-18T01:31:55;102701.67;;;-4.03;81.14
76598;BME280;65486;53.144;18.134;2022-12-18T01:34:26;102695.11;;;-4.04;81.09
76598;BME280;65486;53.144;18.134;2022-12-18T01:36:53;102685.66;;;-4.02;81.13
76598;BME280;65486;53.144;18.134;2022-12-18T01:39:20;102688.68;;;-4.02;81.23
76598;BME280;65486;53.144;18.134;2022-12-18T01:41:48;102696.11;;;-4.03;81.34
76598;BME280;65486;53.144;18.134;2022-12-18T01:44:54;102701.61;;;-4.05;81.36
76598;BME280;65486;53.144;18.134;2022-12-18T01:47:34;102703.08;;;-4.06;81.44
76598;BME280;65486;53.144;18.134;2022-12-18T01:50:14;102709.31;;;-4.05;81.42
76598;BME280;65486;53.144;18.134;2022-12-18T01:52:53;102705.10;;;-4.04;81.43
76598;BME280;65486;53.144;18.134;2022-12-18T01:55:23;102706.02;;;-4.01;81.18
76598;BME280;65486;53.144;18.134;2022-12-18T01:57:56;102714.02;;;-3.99;81.24
76598;BME280;65486;53.144;18.134;2022-12-18T02:00:27;102710.67;;;-4.00;81.25
76598;BME280;65486;53.144;18.134;2022-12-18T02:02:58;102705.88;;;-3.98;81.14
76598;BME280;65486;53.144;18.134;2022-12-18T02:18:57;102723.19;;;-3.99;81.17
76598;BME280;65486;53.144;18.134;2022-12-18T02:27:35;102732.69;;;-3.89;81.11
76598;BME280;65486;53.144;18.134;2022-12-18T02:30:05;102732.29;;;-3.88;81.02
76598;BME280;65486;53.144;18.134;2022-12-18T02:32:39;102734.95;;;-3.87;80.99
76598;BME280;65486;53.144;18.134;2022-12-18T02:35:09;102737.65;;;-3.87;80.97
76598;BME280;65486;53.144;18.134;2022-12-18T02:37:44;102739.73;;;-3.86;80.99
76598;BME280;65486;53.144;18.134;2022-12-18T02:40:18;102740.08;;;-3.89;80.96
76598;BME280;65486;53.144;18.134;2022-12-18T02:42:48;102742.35;;;-3.94;80.90
76598;BME280;65486;53.144;18.134;2022-12-18T02:45:16;102740.70;;;-3.97;80.87
76598;BME280;65486;53.144;18.134;2022-12-18T02:47:46;102738.72;;;-4.00;81.15
76598;BME280;65486;53.144;18.134;2022-12-18T02:50:27;102743.79;;;-4.04;81.06
76598;BME280;65486;53.144;18.134;2022-12-18T02:53:23;102744.60;;;-4.03;81.21
76598;BME280;65486;53.144;18.134;2022-12-18T02:56:09;102751.86;;;-4.01;80.92
76598;BME280;65486;53.144;18.134;2022-12-18T02:59:09;102751.73;;;-4.02;81.10
76598;BME280;65486;53.144;18.134;2022-12-18T03:02:16;102754.20;;;-4.05;81.08
76598;BME280;65486;53.144;18.134;2022-12-18T03:07:42;102758.08;;;-4.10;81.21
76598;BME280;65486;53.144;18.134;2022-12-18T03:10:15;102757.59;;;-4.07;81.06
76598;BME280;65486;53.144;18.134;2022-12-18T03:12:49;102758.41;;;-4.06;81.04
76598;BME280;65486;53.144;18.134;2022-12-18T03:15:35;102758.10;;;-4.04;80.93
76598;BME280;65486;53.144;18.134;2022-12-18T03:18:17;102763.67;;;-4.04;80.94
76598;BME280;65486;53.144;18.134;2022-12-18T03:20:53;102765.55;;;-4.05;80.90
76598;BME280;65486;53.144;18.134;2022-12-18T03:23:27;102764.84;;;-4.09;80.91
76598;BME280;65486;53.144;18.134;2022-12-18T03:25:58;102769.09;;;-4.11;80.88
76598;BME280;65486;53.144;18.134;2022-12-18T03:28:28;102775.34;;;-4.10;80.91
76598;BME280;65486;53.144;18.134;2022-12-18T03:31:01;102774.85;;;-4.08;80.92
76598;BME280;65486;53.144;18.134;2022-12-18T03:33:35;102778.98;;;-4.04;80.89
76598;BME280;65486;53.144;18.134;2022-12-18T03:36:05;102783.17;;;-4.02;80.77
76598;BME280;65486;53.144;18.134;2022-12-18T03:38:35;102784.61;;;-4.02;80.80
76598;BME280;65486;53.144;18.134;2022-12-18T03:50:01;102809.91;;;-4.08;80.76
76598;BME280;65486;53.144;18.134;2022-12-18T03:52:49;102807.75;;;-4.05;80.91
76598;BME280;65486;53.144;18.134;2022-12-18T03:55:19;102807.19;;;-4.01;80.86
76598;BME280;65486;53.144;18.134;2022-12-18T03:57:52;102803.61;;;-3.98;80.66
76598;BME280;65486;53.144;18.134;2022-12-18T04:00:23;102807.52;;;-3.97;80.69
76598;BME280;65486;53.144;18.134;2022-12-18T04:03:01;102811.88;;;-3.98;80.73
76598;BME280;65486;53.144;18.134;2022-12-18T04:05:36;102812.80;;;-3.99;80.81
76598;BME280;65486;53.144;18.134;2022-12-18T04:08:04;102811.06;;;-4.03;80.72
76598;BME280;65486;53.144;18.134;2022-12-18T04:10:34;102811.02;;;-4.05;80.78
76598;BME280;65486;53.144;18.134;2022-12-18T04:13:01;102809.83;;;-4.04;80.80
76598;BME280;65486;53.144;18.134;2022-12-18T04:15:29;102817.44;;;-4.01;80.60
76598;BME280;65486;53.144;18.134;2022-12-18T04:17:56;102817.30;;;-3.99;80.69
76598;BME280;65486;53.144;18.134;2022-12-18T04:20:25;102816.50;;;-3.97;80.68
76598;BME280;65486;53.144;18.134;2022-12-18T04:22:55;102813.34;;;-3.99;80.53
76598;BME280;65486;53.144;18.134;2022-12-18T04:25:26;102816.98;;;-3.96;80.49
76598;BME280;65486;53.144;18.134;2022-12-18T04:28:04;102826.56;;;-3.97;80.61
76598;BME280;65486;53.144;18.134;2022-12-18T04:30:32;102827.77;;;-4.00;80.60
76598;BME280;65486;53.144;18.134;2022-12-18T04:33:01;102825.98;;;-4.03;80.75
76598;BME280;65486;53.144;18.134;2022-12-18T04:35:29;102825.55;;;-4.02;80.43
76598;BME280;65486;53.144;18.134;2022-12-18T04:37:59;102829.65;;;-4.01;80.45
76598;BME280;65486;53.144;18.134;2022-12-18T04:40:31;102835.98;;;-4.02;80.46
76598;BME280;65486;53.144;18.134;2022-12-18T04:43:04;102841.02;;;-4.02;80.46
76598;BME280;65486;53.144;18.134;2022-12-18T04:45:39;102837.45;;;-4.03;80.34
76598;BME280;65486;53.144;18.134;2022-12-18T04:48:14;102836.31;;;-4.01;80.54
76598;BME280;65486;53.144;18.134;2022-12-18T04:50:43;102842.67;;;-4.00;80.54
76598;BME280;65486;53.144;18.134;2022-12-18T04:53:10;102848.71;;;-4.02;80.47
76598;BME280;65486;53.144;18.134;2022-12-18T04:55:37;102851.80;;;-4.02;80.41
76598;BME280;65486;53.144;18.134;2022-12-18T04:58:04;102848.70;;;-4.05;80.36
76598;BME280;65486;53.144;18.134;2022-12-18T05:00:31;102851.61;;;-4.05;80.42
76598;BME280;65486;53.144;18.134;2022-12-18T05:03:00;102853.23;;;-4.06;80.37
76598;BME280;65486;53.144;18.134;2022-12-18T05:05:28;102856.48;;;-4.06;80.31
76598;BME280;65486;53.144;18.134;2022-12-18T05:07:56;102858.92;;;-4.05;80.25
76598;BME280;65486;53.144;18.134;2022-12-18T05:10:23;102858.60;;;-4.05;80.35
76598;BME280;65486;53.144;18.134;2022-12-18T05:12:51;102858.94;;;-4.09;80.31
76598;BME280;65486;53.144;18.134;2022-12-18T05:15:31;102857.96;;;-4.14;80.41
76598;BME280;65486;53.144;18.134;2022-12-18T05:17:59;102861.94;;;-4.18;80.50
76598;BME280;65486;53.144;18.134;2022-12-18T05:20:27;102863.36;;;-4.21;80.41
76598;BME280;65486;53.144;18.134;2022-12-18T05:22:55;102870.89;;;-4.24;80.38
76598;BME280;65486;53.144;18.134;2022-12-18T05:25:22;102876.73;;;-4.30;80.40
76598;BME280;65486;53.144;18.134;2022-12-18T05:27:49;102882.98;;;-4.33;80.45
76598;BME280;65486;53.144;18.134;2022-12-18T05:30:16;102894.27;;;-4.33;80.47
76598;BME280;65486;53.144;18.134;2022-12-18T05:32:43;102899.71;;;-4.37;80.39
76598;BME280;65486;53.144;18.134;2022-12-18T05:35:11;102906.79;;;-4.42;80.63
76598;BME280;65486;53.144;18.134;2022-12-18T05:37:39;102910.95;;;-4.47;80.62
76598;BME280;65486;53.144;18.134;2022-12-18T05:40:06;102909.63;;;-4.49;80.65
76598;BME280;65486;53.144;18.134;2022-12-18T05:42:33;102914.56;;;-4.51;80.66
76598;BME280;65486;53.144;18.134;2022-12-18T05:45:01;102915.37;;;-4.56;80.74
76598;BME280;65486;53.144;18.134;2022-12-18T05:47:31;102918.45;;;-4.61;80.72
76598;BME280;65486;53.144;18.134;2022-12-18T05:49:58;102918.34;;;-4.62;80.77
76598;BME280;65486;53.144;18.134;2022-12-18T05:52:25;102919.56;;;-4.61;80.58
76598;BME280;65486;53.144;18.134;2022-12-18T05:54:53;102922.83;;;-4.62;80.72
76598;BME280;65486;53.144;18.134;2022-12-18T05:57:20;102923.96;;;-4.63;80.72
76598;BME280;65486;53.144;18.134;2022-12-18T05:59:49;102933.30;;;-4.63;80.74
76598;BME280;65486;53.144;18.134;2022-12-18T06:02:18;102930.66;;;-4.65;80.78
76598;BME280;65486;53.144;18.134;2022-12-18T06:04:48;102929.86;;;-4.66;80.71
76598;BME280;65486;53.144;18.134;2022-12-18T06:07:19;102935.84;;;-4.67;80.79
76598;BME280;65486;53.144;18.134;2022-12-18T06:09:45;102941.83;;;-4.69;80.70
76598;BME280;65486;53.144;18.134;2022-12-18T06:12:12;102945.67;;;-4.71;80.70
76598;BME280;65486;53.144;18.134;2022-12-18T06:14:39;102949.17;;;-4.73;80.71
76598;BME280;65486;53.144;18.134;2022-12-18T06:17:06;102946.54;;;-4.74;80.82
76598;BME280;65486;53.144;18.134;2022-12-18T06:19:34;102952.63;;;-4.74;80.62
76598;BME280;65486;53.144;18.134;2022-12-18T06:22:01;102954.05;;;-4.78;80.34
76598;BME280;65486;53.144;18.134;2022-12-18T06:24:29;102958.09;;;-4.83;80.33
76598;BME280;65486;53.144;18.134;2022-12-18T06:26:58;102964.46;;;-4.89;80.45
76598;BME280;65486;53.144;18.134;2022-12-18T06:29:29;102970.39;;;-4.97;80.35
76598;BME280;65486;53.144;18.134;2022-12-18T06:31:56;102967.83;;;-5.08;80.51
76598;BME280;65486;53.144;18.134;2022-12-18T06:34:24;102975.98;;;-5.10;80.57
76598;BME280;65486;53.144;18.134;2022-12-18T06:36:50;102978.21;;;-5.16;80.46
76598;BME280;65486;53.144;18.134;2022-12-18T06:39:19;102981.63;;;-5.20;80.59
76598;BME280;65486;53.144;18.134;2022-12-18T06:41:53;102981.39;;;-5.23;80.46
76598;BME280;65486;53.144;18.134;2022-12-18T06:44:21;102993.55;;;-5.30;80.42
76598;BME280;65486;53.144;18.134;2022-12-18T06:46:53;102994.64;;;-5.34;80.78
76598;BME280;65486;53.144;18.134;2022-12-18T06:49:20;102999.85;;;-5.38;80.55
76598;BME280;65486;53.144;18.134;2022-12-18T06:51:47;103002.05;;;-5.44;80.60
76598;BME280;65486;53.144;18.134;2022-12-18T06:54:14;103004.98;;;-5.49;80.52
76598;BME280;65486;53.144;18.134;2022-12-18T06:56:41;103010.61;;;-5.55;80.58
76598;BME280;65486;53.144;18.134;2022-12-18T06:59:09;103010.81;;;-5.60;80.46
76598;BME280;65486;53.144;18.134;2022-12-18T07:01:41;103018.23;;;-5.62;80.60
76598;BME280;65486;53.144;18.134;2022-12-18T07:04:12;103025.73;;;-5.66;80.70
76598;BME280;65486;53.144;18.134;2022-12-18T07:06:39;103027.05;;;-5.67;80.68
76598;BME280;65486;53.144;18.134;2022-12-18T07:09:06;103029.86;;;-5.70;80.69
76598;BME280;65486;53.144;18.134;2022-12-18T07:11:33;103035.15;;;-5.72;80.84
76598;BME280;65486;53.144;18.134;2022-12-18T07:14:00;103041.19;;;-5.75;80.91
76598;BME280;65486;53.144;18.134;2022-12-18T07:16:28;103045.04;;;-5.77;80.85
76598;BME280;65486;53.144;18.134;2022-12-18T07:19:10;103049.58;;;-5.79;80.73
76598;BME280;65486;53.144;18.134;2022-12-18T07:21:37;103048.30;;;-5.78;80.81
76598;BME280;65486;53.144;18.134;2022-12-18T07:24:05;103049.87;;;-5.77;80.60
76598;BME280;65486;53.144;18.134;2022-12-18T07:26:34;103058.30;;;-5.73;80.83
76598;BME280;65486;53.144;18.134;2022-12-18T07:29:01;103055.44;;;-5.69;80.78
76598;BME280;65486;53.144;18.134;2022-12-18T07:31:28;103058.13;;;-5.65;80.84
76598;BME280;65486;53.144;18.134;2022-12-18T07:33:57;103061.19;;;-5.61;80.87
76598;BME280;65486;53.144;18.134;2022-12-18T07:36:24;103064.23;;;-5.56;80.77
76598;BME280;65486;53.144;18.134;2022-12-18T07:38:51;103069.63;;;-5.57;80.63
76598;BME280;65486;53.144;18.134;2022-12-18T07:41:19;103075.17;;;-5.57;80.76
76598;BME280;65486;53.144;18.134;2022-12-18T07:43:48;103077.29;;;-5.55;80.74
76598;BME280;65486;53.144;18.134;2022-12-18T07:46:18;103079.67;;;-5.53;80.56
76598;BME280;65486;53.144;18.134;2022-12-18T07:48:45;103083.67;;;-5.49;80.62
76598;BME280;65486;53.144;18.134;2022-12-18T07:51:12;103084.98;;;-5.51;80.53
76598;BME280;65486;53.144;18.134;2022-12-18T07:53:40;103088.52;;;-5.50;80.48
76598;BME280;65486;53.144;18.134;2022-12-18T07:56:10;103096.44;;;-5.47;80.27
76598;BME280;65486;53.144;18.134;2022-12-18T07:58:38;103095.56;;;-5.47;80.08
76598;BME280;65486;53.144;18.134;2022-12-18T08:01:08;103094.25;;;-5.50;80.14
76598;BME280;65486;53.144;18.134;2022-12-18T08:03:39;103094.17;;;-5.48;80.16
76598;BME280;65486;53.144;18.134;2022-12-18T08:06:09;103092.58;;;-5.44;80.05
76598;BME280;65486;53.144;18.134;2022-12-18T08:08:40;103090.35;;;-5.38;79.79
76598;BME280;65486;53.144;18.134;2022-12-18T08:11:27;103095.93;;;-5.26;79.59
76598;BME280;65486;53.144;18.134;2022-12-18T08:13:57;103107.64;;;-5.10;79.35
76598;BME280;65486;53.144;18.134;2022-12-18T08:16:24;103114.04;;;-5.01;79.08
76598;BME280;65486;53.144;18.134;2022-12-18T08:18:52;103119.70;;;-4.90;79.00
76598;BME280;65486;53.144;18.134;2022-12-18T08:21:23;103120.21;;;-4.90;78.71
76598;BME280;65486;53.144;18.134;2022-12-18T08:23:52;103122.10;;;-4.92;78.81
76598;BME280;65486;53.144;18.134;2022-12-18T08:26:21;103122.30;;;-4.97;78.69
76598;BME280;65486;53.144;18.134;2022-12-18T08:28:50;103122.95;;;-5.04;78.64
76598;BME280;65486;53.144;18.134;2022-12-18T08:31:18;103131.21;;;-5.08;78.73
76598;BME280;65486;53.144;18.134;2022-12-18T08:33:48;103132.19;;;-5.06;78.75
76598;BME280;65486;53.144;18.134;2022-12-18T08:36:19;103136.23;;;-4.91;78.51
76598;BME280;65486;53.144;18.134;2022-12-18T08:38:47;103135.48;;;-4.66;77.94
76598;BME280;65486;53.144;18.134;2022-12-18T08:41:19;103137.11;;;-4.39;77.54
76598;BME280;65486;53.144;18.134;2022-12-18T08:43:52;103145.38;;;-4.11;76.76
76598;BME280;65486;53.144;18.134;2022-12-18T08:46:40;103145.66;;;-3.91;76.59
76598;BME280;65486;53.144;18.134;2022-12-18T08:49:09;103144.35;;;-3.89;76.41
76598;BME280;65486;53.144;18.134;2022-12-18T08:51:38;103153.54;;;-4.01;76.56
76598;BME280;65486;53.144;18.134;2022-12-18T08:54:06;103159.60;;;-4.08;76.70
76598;BME280;65486;53.144;18.134;2022-12-18T08:56:35;103157.37;;;-4.02;76.72
76598;BME280;65486;53.144;18.134;2022-12-18T08:59:03;103155.48;;;-4.08;76.90
76598;BME280;65486;53.144;18.134;2022-12-18T09:01:34;103148.39;;;-4.18;76.61
76598;BME280;65486;53.144;18.134;2022-12-18T09:04:10;103140.49;;;-4.14;76.79
76598;BME280;65486;53.144;18.134;2022-12-18T09:06:46;103136.19;;;-3.91;76.50
76598;BME280;65486;53.144;18.134;2022-12-18T09:09:14;103136.56;;;-3.73;76.00
76598;BME280;65486;53.144;18.134;2022-12-18T09:11:44;103139.39;;;-3.57;75.82
76598;BME280;65486;53.144;18.134;2022-12-18T09:14:13;103148.00;;;-3.42;75.62
76598;BME280;65486;53.144;18.134;2022-12-18T09:16:43;103144.42;;;-3.42;75.54
76598;BME280;65486;53.144;18.134;2022-12-18T09:19:11;103139.96;;;-3.51;75.60
76598;BME280;65486;53.144;18.134;2022-12-18T09:21:39;103141.25;;;-3.51;75.98
76598;BME280;65486;53.144;18.134;2022-12-18T09:24:11;103132.66;;;-3.63;75.96
76598;BME280;65486;53.144;18.134;2022-12-18T09:26:40;103133.44;;;-3.86;75.09
76598;BME280;65486;53.144;18.134;2022-12-18T09:29:06;103129.54;;;-4.07;75.86
76598;BME280;65486;53.144;18.134;2022-12-18T09:31:35;103123.70;;;-4.12;76.01
76598;BME280;65486;53.144;18.134;2022-12-18T09:34:04;103118.67;;;-4.05;76.02
76598;BME280;65486;53.144;18.134;2022-12-18T09:36:35;103114.27;;;-4.06;75.91
76598;BME280;65486;53.144;18.134;2022-12-18T09:39:16;103110.55;;;-4.08;76.31
76598;BME280;65486;53.144;18.134;2022-12-18T09:41:53;103114.52;;;-4.08;76.43
76598;BME280;65486;53.144;18.134;2022-12-18T09:44:39;103119.86;;;-4.00;76.51
76598;BME280;65486;53.144;18.134;2022-12-18T09:47:14;103126.36;;;-3.89;76.53
76598;BME280;65486;53.144;18.134;2022-12-18T09:49:51;103132.88;;;-3.82;76.40
76598;BME280;65486;53.144;18.134;2022-12-18T09:52:34;103131.30;;;-3.91;75.84
76598;BME280;65486;53.144;18.134;2022-12-18T09:55:14;103124.79;;;-4.01;76.16
76598;BME280;65486;53.144;18.134;2022-12-18T09:57:57;103122.77;;;-4.12;76.14
76598;BME280;65486;53.144;18.134;2022-12-18T10:00:28;103126.72;;;-4.08;76.13
76598;BME280;65486;53.144;18.134;2022-12-18T10:03:00;103126.13;;;-4.14;75.88
76598;BME280;65486;53.144;18.134;2022-12-18T10:06:23;103124.27;;;-4.21;76.31
76598;BME280;65486;53.144;18.134;2022-12-18T10:14:23;103120.13;;;-4.40;77.12
76598;BME280;65486;53.144;18.134;2022-12-18T10:17:01;103127.19;;;-4.33;76.54
76598;BME280;65486;53.144;18.134;2022-12-18T10:20:00;103129.77;;;-4.26;76.71
76598;BME280;65486;53.144;18.134;2022-12-18T10:29:26;103149.54;;;-4.55;76.18
76598;BME280;65486;53.144;18.134;2022-12-18T10:31:54;103146.38;;;-4.65;76.19
76598;BME280;65486;53.144;18.134;2022-12-18T10:34:24;103149.11;;;-4.74;76.32
76598;BME280;65486;53.144;18.134;2022-12-18T10:37:06;103154.66;;;-4.82;76.60
76598;BME280;65486;53.144;18.134;2022-12-18T10:40:15;103159.58;;;-4.88;76.92
76598;BME280;65486;53.144;18.134;2022-12-18T10:43:35;103162.44;;;-4.83;76.87
76598;BME280;65486;53.144;18.134;2022-12-18T10:48:55;103155.41;;;-4.70;76.90
76598;BME280;65486;53.144;18.134;2022-12-18T10:51:33;103155.91;;;-4.69;77.10
76598;BME280;65486;53.144;18.134;2022-12-18T10:54:14;103155.25;;;-4.71;76.89
76598;BME280;65486;53.144;18.134;2022-12-18T10:56:43;103155.51;;;-4.68;77.13
76598;BME280;65486;53.144;18.134;2022-12-18T10:59:13;103160.81;;;-4.71;76.99
76598;BME280;65486;53.144;18.134;2022-12-18T11:01:56;103162.56;;;-4.74;77.01
76598;BME280;65486;53.144;18.134;2022-12-18T11:04:25;103168.86;;;-4.78;76.99
76598;BME280;65486;53.144;18.134;2022-12-18T11:06:59;103174.41;;;-4.78;77.31
76598;BME280;65486;53.144;18.134;2022-12-18T11:09:59;103184.86;;;-4.71;77.30
76598;BME280;65486;53.144;18.134;2022-12-18T11:12:31;103186.71;;;-4.60;77.02
76598;BME280;65486;53.144;18.134;2022-12-18T11:14:59;103189.20;;;-4.59;76.94
76598;BME280;65486;53.144;18.134;2022-12-18T11:17:35;103186.02;;;-4.56;77.20
76598;BME280;65486;53.144;18.134;2022-12-18T11:20:31;103183.45;;;-4.55;76.50
76598;BME280;65486;53.144;18.134;2022-12-18T11:23:01;103183.52;;;-4.56;76.30
76598;BME280;65486;53.144;18.134;2022-12-18T11:25:30;103178.71;;;-4.65;76.12
76598;BME280;65486;53.144;18.134;2022-12-18T11:28:04;103180.56;;;-4.75;76.31
76598;BME280;65486;53.144;18.134;2022-12-18T11:30:34;103183.56;;;-4.78;76.68
76598;BME280;65486;53.144;18.134;2022-12-18T11:33:14;103182.70;;;-4.75;76.88
76598;BME280;65486;53.144;18.134;2022-12-18T11:36:04;103173.64;;;-4.68;76.80
76598;BME280;65486;53.144;18.134;2022-12-18T11:38:44;103168.63;;;-4.69;76.54
76598;BME280;65486;53.144;18.134;2022-12-18T11:41:27;103166.69;;;-4.74;76.59
76598;BME280;65486;53.144;18.134;2022-12-18T11:44:32;103167.64;;;-4.75;76.97
76598;BME280;65486;53.144;18.134;2022-12-18T11:47:18;103168.52;;;-4.66;76.85
76598;BME280;65486;53.144;18.134;2022-12-18T11:49:53;103169.39;;;-4.62;76.75
76598;BME280;65486;53.144;18.134;2022-12-18T11:52:34;103165.91;;;-4.60;76.92
76598;BME280;65486;53.144;18.134;2022-12-18T11:55:28;103159.16;;;-4.61;76.59
76598;BME280;65486;53.144;18.134;2022-12-18T12:01:38;103172.48;;;-4.75;76.76
76598;BME280;65486;53.144;18.134;2022-12-18T12:09:49;103180.55;;;-4.75;76.99
76598;BME280;65486;53.144;18.134;2022-12-18T12:21:01;103192.37;;;-4.83;77.11
76598;BME280;65486;53.144;18.134;2022-12-18T12:23:45;103202.52;;;-4.85;77.19
76598;BME280;65486;53.144;18.134;2022-12-18T12:29:22;103200.42;;;-4.95;77.00
76598;BME280;65486;53.144;18.134;2022-12-18T12:32:32;103200.58;;;-4.98;77.02
76598;BME280;65486;53.144;18.134;2022-12-18T12:41:11;103221.06;;;-4.99;77.37
76598;BME280;65486;53.144;18.134;2022-12-18T12:44:04;103231.04;;;-5.02;76.99
76598;BME280;65486;53.144;18.134;2022-12-18T12:46:37;103232.55;;;-5.08;76.95
76598;BME280;65486;53.144;18.134;2022-12-18T12:49:17;103233.17;;;-5.10;77.41
76598;BME280;65486;53.144;18.134;2022-12-18T12:52:00;103238.02;;;-5.06;77.26
76598;BME280;65486;53.144;18.134;2022-12-18T12:54:39;103243.90;;;-5.05;77.20
76598;BME280;65486;53.144;18.134;2022-12-18T12:57:20;103244.36;;;-5.08;77.23
76598;BME280;65486;53.144;18.134;2022-12-18T13:00:19;103236.85;;;-5.17;76.92
76598;BME280;65486;53.144;18.134;2022-12-18T13:08:53;103245.45;;;-5.39;77.16
76598;BME280;65486;53.144;18.134;2022-12-18T13:11:42;103249.89;;;-5.47;77.48
76598;BME280;65486;53.144;18.134;2022-12-18T13:14:37;103245.08;;;-5.48;77.41
76598;BME280;65486;53.144;18.134;2022-12-18T13:20:10;103248.45;;;-5.51;77.38
76598;BME280;65486;53.144;18.134;2022-12-18T13:22:49;103235.10;;;-5.68;77.47
76598;BME280;65486;53.144;18.134;2022-12-18T13:25:43;103242.55;;;-5.71;77.83
76598;BME280;65486;53.144;18.134;2022-12-18T13:31:57;103248.94;;;-5.79;77.97
76598;BME280;65486;53.144;18.134;2022-12-18T13:34:32;103245.27;;;-5.85;77.86
76598;BME280;65486;53.144;18.134;2022-12-18T13:37:39;103249.18;;;-5.85;78.03
76598;BME280;65486;53.144;18.134;2022-12-18T13:45:59;103243.92;;;-5.84;77.91
76598;BME280;65486;53.144;18.134;2022-12-18T13:48:27;103248.56;;;-5.87;78.11
76598;BME280;65486;53.144;18.134;2022-12-18T13:51:19;103252.29;;;-5.90;78.04
76598;BME280;65486;53.144;18.134;2022-12-18T13:54:35;103251.39;;;-5.95;78.13
76598;BME280;65486;53.144;18.134;2022-12-18T13:57:05;103248.41;;;-6.07;78.30
76598;BME280;65486;53.144;18.134;2022-12-18T14:02:23;103246.36;;;-6.10;78.72
76598;BME280;65486;53.144;18.134;2022-12-18T14:04:53;103244.36;;;-6.04;78.68
76598;BME280;65486;53.144;18.134;2022-12-18T14:07:23;103242.25;;;-6.05;78.72
76598;BME280;65486;53.144;18.134;2022-12-18T14:09:54;103249.58;;;-6.05;78.57
76598;BME280;65486;53.144;18.134;2022-12-18T14:12:29;103250.16;;;-6.06;78.48
76598;BME280;65486;53.144;18.134;2022-12-18T14:17:57;103254.46;;;-6.11;78.61
76598;BME280;65486;53.144;18.134;2022-12-18T14:20:27;103257.16;;;-6.11;78.92
76598;BME280;65486;53.144;18.134;2022-12-18T14:22:56;103264.23;;;-6.09;78.80
76598;BME280;65486;53.144;18.134;2022-12-18T14:25:26;103271.08;;;-6.05;78.79
76598;BME280;65486;53.144;18.134;2022-12-18T14:28:14;103269.04;;;-6.03;78.61
76598;BME280;65486;53.144;18.134;2022-12-18T14:30:45;103257.89;;;-6.07;78.67
76598;BME280;65486;53.144;18.134;2022-12-18T14:33:21;103257.05;;;-6.03;78.65
76598;BME280;65486;53.144;18.134;2022-12-18T14:35:59;103260.90;;;-6.01;78.78
76598;BME280;65486;53.144;18.134;2022-12-18T14:38:39;103262.40;;;-5.98;78.65
76598;BME280;65486;53.144;18.134;2022-12-18T14:43:40;103259.73;;;-5.93;78.74
76598;BME280;65486;53.144;18.134;2022-12-18T14:46:37;103255.43;;;-5.93;78.60
76598;BME280;65486;53.144;18.134;2022-12-18T14:52:29;103261.55;;;-6.05;78.65
76598;BME280;65486;53.144;18.134;2022-12-18T14:54:58;103263.45;;;-6.02;78.70
76598;BME280;65486;53.144;18.134;2022-12-18T14:57:35;103257.59;;;-6.08;78.58